sensor_id;sensor_type;location;lat;lon;timestamp;pressure;altitude;pressure_sealevel;temperature;humidity
64230;BME280;50547;49.498;0.092;2022-09-21T00:01:35;1023;;;14.42;67.64
64230;BME280;50547;49.498;0.092;2022-09-21T00:04:04;1023;;;14.39;67.75
64230;BME280;50547;49.498;0.092;2022-09-21T00:06:34;1023;;;14.32;67.98
64230;BME280;50547;49.498;0.092;2022-09-21T00:09:03;1023;;;14.34;67.69
64230;BME280;50547;49.498;0.092;2022-09-21T00:11:34;1023;;;14.36;67.44
64230;BME280;50547;49.498;0.092;2022-09-21T00:14:06;1023;;;14.41;67.23
64230;BME280;50547;49.498;0.092;2022-09-21T00:16:36;1023;;;14.46;67.07
64230;BME280;50547;49.498;0.092;2022-09-21T00:19:05;1023;;;14.55;66.65
64230;BME280;50547;49.498;0.092;2022-09-21T00:21:35;1023;;;14.50;67.01
64230;BME280;50547;49.498;0.092;2022-09-21T00:24:05;1023;;;14.49;67.09
64230;BME280;50547;49.498;0.092;2022-09-21T00:26:35;1023;;;14.48;67.21
64230;BME280;50547;49.498;0.092;2022-09-21T00:29:04;1023;;;14.45;67.42
64230;BME280;50547;49.498;0.092;2022-09-21T00:31:33;1023;;;14.47;67.19
64230;BME280;50547;49.498;0.092;2022-09-21T00:34:02;1023;;;14.43;67.39
64230;BME280;50547;49.498;0.092;2022-09-21T00:36:32;1023;;;14.29;68.18
64230;BME280;50547;49.498;0.092;2022-09-21T00:39:02;1023;;;14.23;68.39
64230;BME280;50547;49.498;0.092;2022-09-21T00:41:32;1023;;;14.18;68.51
64230;BME280;50547;49.498;0.092;2022-09-21T00:44:34;1023;;;14.16;68.56
64230;BME280;50547;49.498;0.092;2022-09-21T00:47:06;1023;;;14.08;68.95
64230;BME280;50547;49.498;0.092;2022-09-21T00:49:38;1023;;;13.98;69.38
64230;BME280;50547;49.498;0.092;2022-09-21T00:52:08;1023;;;13.93;69.49
64230;BME280;50547;49.498;0.092;2022-09-21T00:54:44;1023;;;13.92;69.48
64230;BME280;50547;49.498;0.092;2022-09-21T00:57:15;1023;;;13.90;69.57
64230;BME280;50547;49.498;0.092;2022-09-21T00:59:46;1023;;;13.90;69.44
64230;BME280;50547;49.498;0.092;2022-09-21T01:02:16;1023;;;13.85;69.65
64230;BME280;50547;49.498;0.092;2022-09-21T01:04:46;1023;;;13.83;69.73
64230;BME280;50547;49.498;0.092;2022-09-21T01:07:20;1023;;;13.81;69.76
64230;BME280;50547;49.498;0.092;2022-09-21T01:09:53;1023;;;13.78;69.91
64230;BME280;50547;49.498;0.092;2022-09-21T01:12:32;1023;;;13.78;69.88
64230;BME280;50547;49.498;0.092;2022-09-21T01:15:14;1023;;;13.77;69.88
64230;BME280;50547;49.498;0.092;2022-09-21T01:17:51;1023;;;13.79;69.93
64230;BME280;50547;49.498;0.092;2022-09-21T01:20:54;1023;;;13.91;69.41
64230;BME280;50547;49.498;0.092;2022-09-21T01:23:58;1023;;;14.07;68.78
64230;BME280;50547;49.498;0.092;2022-09-21T01:26:49;1023;;;14.24;68.26
64230;BME280;50547;49.498;0.092;2022-09-21T01:29:25;1023;;;14.32;68.05
64230;BME280;50547;49.498;0.092;2022-09-21T01:32:01;1023;;;14.44;67.51
64230;BME280;50547;49.498;0.092;2022-09-21T01:34:35;1023;;;14.45;67.52
64230;BME280;50547;49.498;0.092;2022-09-21T01:37:09;1023;;;14.38;67.95
64230;BME280;50547;49.498;0.092;2022-09-21T01:39:43;1023;;;14.28;68.50
64230;BME280;50547;49.498;0.092;2022-09-21T01:42:14;1023;;;14.27;68.66
64230;BME280;50547;49.498;0.092;2022-09-21T01:44:46;1023;;;14.25;68.60
64230;BME280;50547;49.498;0.092;2022-09-21T01:47:16;1023;;;14.19;68.75
64230;BME280;50547;49.498;0.092;2022-09-21T01:49:49;1023;;;14.13;69.23
64230;BME280;50547;49.498;0.092;2022-09-21T01:52:30;1023;;;14.13;69.22
64230;BME280;50547;49.498;0.092;2022-09-21T01:55:06;1023;;;14.23;68.62
64230;BME280;50547;49.498;0.092;2022-09-21T01:57:41;1023;;;14.21;68.72
64230;BME280;50547;49.498;0.092;2022-09-21T02:00:12;1023;;;14.22;68.77
64230;BME280;50547;49.498;0.092;2022-09-21T02:02:45;1023;;;14.09;69.57
64230;BME280;50547;49.498;0.092;2022-09-21T02:05:18;1023;;;14.18;69.09
64230;BME280;50547;49.498;0.092;2022-09-21T02:07:50;1023;;;14.16;69.10
64230;BME280;50547;49.498;0.092;2022-09-21T02:10:23;1023;;;14.22;69.02
64230;BME280;50547;49.498;0.092;2022-09-21T02:12:55;1023;;;14.22;69.18
64230;BME280;50547;49.498;0.092;2022-09-21T02:15:31;1023;;;14.31;68.73
64230;BME280;50547;49.498;0.092;2022-09-21T02:18:05;1023;;;14.31;68.75
64230;BME280;50547;49.498;0.092;2022-09-21T02:20:38;1023;;;14.32;68.77
64230;BME280;50547;49.498;0.092;2022-09-21T02:23:16;1023;;;14.30;68.84
64230;BME280;50547;49.498;0.092;2022-09-21T02:25:53;1023;;;14.27;69.08
64230;BME280;50547;49.498;0.092;2022-09-21T02:28:32;1023;;;14.27;68.92
64230;BME280;50547;49.498;0.092;2022-09-21T02:31:10;1023;;;14.18;69.36
64230;BME280;50547;49.498;0.092;2022-09-21T02:33:46;1023;;;14.11;69.72
64230;BME280;50547;49.498;0.092;2022-09-21T02:36:25;1023;;;14.03;70.07
64230;BME280;50547;49.498;0.092;2022-09-21T02:39:02;1023;;;13.98;70.34
64230;BME280;50547;49.498;0.092;2022-09-21T02:41:37;1023;;;13.92;70.68
64230;BME280;50547;49.498;0.092;2022-09-21T02:44:11;1023;;;13.94;70.24
64230;BME280;50547;49.498;0.092;2022-09-21T02:46:46;1023;;;13.87;70.47
64230;BME280;50547;49.498;0.092;2022-09-21T02:49:20;1023;;;13.68;71.30
64230;BME280;50547;49.498;0.092;2022-09-21T02:51:52;1023;;;13.60;71.68
64230;BME280;50547;49.498;0.092;2022-09-21T02:54:28;1023;;;13.58;71.62
64230;BME280;50547;49.498;0.092;2022-09-21T02:56:59;1023;;;13.61;71.52
64230;BME280;50547;49.498;0.092;2022-09-21T02:59:30;1023;;;13.61;71.44
64230;BME280;50547;49.498;0.092;2022-09-21T03:01:59;1023;;;13.66;71.31
64230;BME280;50547;49.498;0.092;2022-09-21T03:04:28;1023;;;13.73;71.08
64230;BME280;50547;49.498;0.092;2022-09-21T03:06:57;1023;;;13.77;70.89
64230;BME280;50547;49.498;0.092;2022-09-21T03:09:26;1023;;;13.77;71.08
64230;BME280;50547;49.498;0.092;2022-09-21T03:11:55;1023;;;13.79;71.03
64230;BME280;50547;49.498;0.092;2022-09-21T03:14:24;1023;;;13.88;70.94
64230;BME280;50547;49.498;0.092;2022-09-21T03:16:53;1023;;;13.94;70.15
64230;BME280;50547;49.498;0.092;2022-09-21T03:19:22;1023;;;13.74;71.09
64230;BME280;50547;49.498;0.092;2022-09-21T03:21:51;1023;;;13.67;71.46
64230;BME280;50547;49.498;0.092;2022-09-21T03:24:20;1023;;;13.58;71.84
64230;BME280;50547;49.498;0.092;2022-09-21T03:26:49;1023;;;13.56;71.90
64230;BME280;50547;49.498;0.092;2022-09-21T03:29:18;1023;;;13.48;72.19
64230;BME280;50547;49.498;0.092;2022-09-21T03:31:47;1023;;;13.42;72.28
64230;BME280;50547;49.498;0.092;2022-09-21T03:34:16;1023;;;13.38;72.49
64230;BME280;50547;49.498;0.092;2022-09-21T03:36:45;1023;;;13.31;72.69
64230;BME280;50547;49.498;0.092;2022-09-21T03:39:14;1023;;;13.25;73.01
64230;BME280;50547;49.498;0.092;2022-09-21T03:41:43;1023;;;13.19;73.10
64230;BME280;50547;49.498;0.092;2022-09-21T03:44:12;1023;;;13.10;73.45
64230;BME280;50547;49.498;0.092;2022-09-21T03:46:41;1023;;;13.03;73.73
64230;BME280;50547;49.498;0.092;2022-09-21T03:49:10;1023;;;12.97;73.99
64230;BME280;50547;49.498;0.092;2022-09-21T03:51:39;1023;;;12.96;73.96
64230;BME280;50547;49.498;0.092;2022-09-21T03:54:08;1023;;;12.94;73.95
64230;BME280;50547;49.498;0.092;2022-09-21T03:56:37;1023;;;12.95;73.92
64230;BME280;50547;49.498;0.092;2022-09-21T03:59:06;1023;;;12.96;73.92
64230;BME280;50547;49.498;0.092;2022-09-21T04:01:35;1023;;;12.99;73.61
64230;BME280;50547;49.498;0.092;2022-09-21T04:04:04;1023;;;13.01;73.75
64230;BME280;50547;49.498;0.092;2022-09-21T04:06:34;1023;;;13.07;73.35
64230;BME280;50547;49.498;0.092;2022-09-21T04:09:03;1023;;;13.05;73.53
64230;BME280;50547;49.498;0.092;2022-09-21T04:11:32;1023;;;13.09;73.42
64230;BME280;50547;49.498;0.092;2022-09-21T04:14:01;1023;;;13.16;73.11
64230;BME280;50547;49.498;0.092;2022-09-21T04:16:30;1023;;;13.22;73.10
64230;BME280;50547;49.498;0.092;2022-09-21T04:18:59;1023;;;13.26;72.96
64230;BME280;50547;49.498;0.092;2022-09-21T04:21:28;1023;;;13.31;72.71
64230;BME280;50547;49.498;0.092;2022-09-21T04:23:57;1023;;;13.33;72.81
64230;BME280;50547;49.498;0.092;2022-09-21T04:26:28;1023;;;13.32;72.98
64230;BME280;50547;49.498;0.092;2022-09-21T04:28:59;1023;;;13.33;72.97
64230;BME280;50547;49.498;0.092;2022-09-21T04:31:29;1023;;;13.26;73.18
64230;BME280;50547;49.498;0.092;2022-09-21T04:33:58;1023;;;13.26;73.13
64230;BME280;50547;49.498;0.092;2022-09-21T04:36:28;1023;;;13.20;73.41
64230;BME280;50547;49.498;0.092;2022-09-21T04:38:59;1023;;;13.16;73.52
64230;BME280;50547;49.498;0.092;2022-09-21T04:41:28;1023;;;13.16;73.64
64230;BME280;50547;49.498;0.092;2022-09-21T04:43:57;1023;;;13.18;73.45
64230;BME280;50547;49.498;0.092;2022-09-21T04:46:26;1023;;;13.16;73.63
64230;BME280;50547;49.498;0.092;2022-09-21T04:48:55;1023;;;13.19;73.51
64230;BME280;50547;49.498;0.092;2022-09-21T04:51:24;1023;;;13.20;73.50
64230;BME280;50547;49.498;0.092;2022-09-21T04:53:53;1023;;;13.26;73.13
64230;BME280;50547;49.498;0.092;2022-09-21T04:56:22;1023;;;13.25;73.24
64230;BME280;50547;49.498;0.092;2022-09-21T04:58:51;1023;;;13.21;73.47
64230;BME280;50547;49.498;0.092;2022-09-21T05:01:20;1023;;;13.21;73.45
64230;BME280;50547;49.498;0.092;2022-09-21T05:03:50;1023;;;13.17;73.62
64230;BME280;50547;49.498;0.092;2022-09-21T05:06:18;1023;;;13.17;73.73
64230;BME280;50547;49.498;0.092;2022-09-21T05:08:48;1023;;;13.21;73.44
64230;BME280;50547;49.498;0.092;2022-09-21T05:11:17;1023;;;13.24;73.25
64230;BME280;50547;49.498;0.092;2022-09-21T05:13:47;1023;;;13.16;73.71
64230;BME280;50547;49.498;0.092;2022-09-21T05:16:17;1023;;;13.17;73.74
64230;BME280;50547;49.498;0.092;2022-09-21T05:18:46;1023;;;13.19;73.78
64230;BME280;50547;49.498;0.092;2022-09-21T05:21:15;1023;;;13.28;73.38
64230;BME280;50547;49.498;0.092;2022-09-21T05:23:44;1023;;;13.41;73.04
64230;BME280;50547;49.498;0.092;2022-09-21T05:26:13;1023;;;13.52;72.54
64230;BME280;50547;49.498;0.092;2022-09-21T05:28:43;1023;;;13.57;72.41
64230;BME280;50547;49.498;0.092;2022-09-21T05:31:26;1023;;;13.47;72.96
64230;BME280;50547;49.498;0.092;2022-09-21T05:34:03;1023;;;13.35;73.46
64230;BME280;50547;49.498;0.092;2022-09-21T05:36:41;1022;;;13.31;73.67
64230;BME280;50547;49.498;0.092;2022-09-21T05:39:15;1022;;;13.20;73.90
64230;BME280;50547;49.498;0.092;2022-09-21T05:41:44;1022;;;13.23;73.68
64230;BME280;50547;49.498;0.092;2022-09-21T05:44:14;1022;;;13.26;73.59
64230;BME280;50547;49.498;0.092;2022-09-21T05:46:49;1022;;;13.31;73.17
64230;BME280;50547;49.498;0.092;2022-09-21T05:49:23;1022;;;13.29;73.28
64230;BME280;50547;49.498;0.092;2022-09-21T05:52:02;1023;;;13.25;73.74
64230;BME280;50547;49.498;0.092;2022-09-21T05:54:49;1023;;;13.21;73.75
64230;BME280;50547;49.498;0.092;2022-09-21T05:57:25;1023;;;13.12;74.13
64230;BME280;50547;49.498;0.092;2022-09-21T06:00:03;1023;;;13.09;74.25
64230;BME280;50547;49.498;0.092;2022-09-21T06:02:49;1023;;;13.13;73.87
64230;BME280;50547;49.498;0.092;2022-09-21T06:05:23;1023;;;13.12;73.90
64230;BME280;50547;49.498;0.092;2022-09-21T06:07:52;1023;;;13.21;73.56
64230;BME280;50547;49.498;0.092;2022-09-21T06:10:21;1023;;;13.22;73.45
64230;BME280;50547;49.498;0.092;2022-09-21T06:12:51;1023;;;13.22;73.62
64230;BME280;50547;49.498;0.092;2022-09-21T06:15:20;1023;;;13.28;73.43
64230;BME280;50547;49.498;0.092;2022-09-21T06:17:49;1023;;;13.35;73.10
64230;BME280;50547;49.498;0.092;2022-09-21T06:20:18;1023;;;13.25;73.65
64230;BME280;50547;49.498;0.092;2022-09-21T06:22:47;1023;;;13.31;73.48
64230;BME280;50547;49.498;0.092;2022-09-21T06:25:16;1023;;;13.40;73.14
64230;BME280;50547;49.498;0.092;2022-09-21T06:27:45;1023;;;13.43;73.16
64230;BME280;50547;49.498;0.092;2022-09-21T06:30:14;1023;;;13.55;72.83
64230;BME280;50547;49.498;0.092;2022-09-21T06:32:43;1023;;;13.61;72.75
64230;BME280;50547;49.498;0.092;2022-09-21T06:35:12;1023;;;13.61;72.90
64230;BME280;50547;49.498;0.092;2022-09-21T06:37:40;1023;;;13.70;72.44
64230;BME280;50547;49.498;0.092;2022-09-21T06:40:10;1023;;;13.72;72.04
64230;BME280;50547;49.498;0.092;2022-09-21T06:42:38;1023;;;13.51;73.05
64230;BME280;50547;49.498;0.092;2022-09-21T06:45:08;1023;;;13.37;73.95
64230;BME280;50547;49.498;0.092;2022-09-21T06:47:37;1023;;;13.36;73.84
64230;BME280;50547;49.498;0.092;2022-09-21T06:50:09;1023;;;13.41;73.58
64230;BME280;50547;49.498;0.092;2022-09-21T06:52:39;1023;;;13.50;73.25
64230;BME280;50547;49.498;0.092;2022-09-21T06:55:08;1023;;;13.62;72.83
64230;BME280;50547;49.498;0.092;2022-09-21T06:57:37;1023;;;13.91;71.87
64230;BME280;50547;49.498;0.092;2022-09-21T07:00:09;1023;;;14.17;71.30
64230;BME280;50547;49.498;0.092;2022-09-21T07:02:42;1023;;;14.42;70.73
64230;BME280;50547;49.498;0.092;2022-09-21T07:05:11;1023;;;14.71;70.78
64230;BME280;50547;49.498;0.092;2022-09-21T07:07:40;1023;;;15.00;70.10
64230;BME280;50547;49.498;0.092;2022-09-21T07:10:09;1023;;;14.97;70.33
64230;BME280;50547;49.498;0.092;2022-09-21T07:12:38;1023;;;14.83;70.82
64230;BME280;50547;49.498;0.092;2022-09-21T07:15:22;1023;;;14.83;70.94
64230;BME280;50547;49.498;0.092;2022-09-21T07:17:52;1023;;;14.84;70.65
64230;BME280;50547;49.498;0.092;2022-09-21T07:20:21;1023;;;14.92;70.40
64230;BME280;50547;49.498;0.092;2022-09-21T07:22:50;1023;;;14.94;69.93
64230;BME280;50547;49.498;0.092;2022-09-21T07:25:19;1023;;;15.02;69.79
64230;BME280;50547;49.498;0.092;2022-09-21T07:27:48;1023;;;15.30;68.81
64230;BME280;50547;49.498;0.092;2022-09-21T07:30:17;1023;;;15.41;68.41
64230;BME280;50547;49.498;0.092;2022-09-21T07:32:46;1023;;;15.48;68.23
64230;BME280;50547;49.498;0.092;2022-09-21T07:35:15;1023;;;15.45;68.40
64230;BME280;50547;49.498;0.092;2022-09-21T07:37:44;1023;;;15.58;68.00
64230;BME280;50547;49.498;0.092;2022-09-21T07:40:14;1023;;;15.53;68.21
64230;BME280;50547;49.498;0.092;2022-09-21T07:42:43;1023;;;15.79;67.43
64230;BME280;50547;49.498;0.092;2022-09-21T07:45:12;1023;;;16.05;66.74
64230;BME280;50547;49.498;0.092;2022-09-21T07:47:41;1023;;;16.05;66.43
64230;BME280;50547;49.498;0.092;2022-09-21T07:50:10;1023;;;16.05;66.48
64230;BME280;50547;49.498;0.092;2022-09-21T07:52:36;1023;;;16.08;66.59
64230;BME280;50547;49.498;0.092;2022-09-21T07:55:10;1023;;;16.17;66.36
64230;BME280;50547;49.498;0.092;2022-09-21T07:57:39;1023;;;16.46;65.50
64230;BME280;50547;49.498;0.092;2022-09-21T08:00:10;1023;;;16.59;65.26
64230;BME280;50547;49.498;0.092;2022-09-21T08:02:37;1023;;;16.89;64.86
64230;BME280;50547;49.498;0.092;2022-09-21T08:05:06;1023;;;16.92;64.57
64230;BME280;50547;49.498;0.092;2022-09-21T08:07:35;1023;;;16.85;64.62
64230;BME280;50547;49.498;0.092;2022-09-21T08:10:06;1023;;;16.73;64.96
64230;BME280;50547;49.498;0.092;2022-09-21T08:12:35;1023;;;16.77;64.86
64230;BME280;50547;49.498;0.092;2022-09-21T08:15:05;1023;;;16.70;65.16
64230;BME280;50547;49.498;0.092;2022-09-21T08:17:32;1023;;;16.89;64.62
64230;BME280;50547;49.498;0.092;2022-09-21T08:20:01;1023;;;16.93;64.25
64230;BME280;50547;49.498;0.092;2022-09-21T08:22:30;1023;;;16.88;64.05
64230;BME280;50547;49.498;0.092;2022-09-21T08:24:59;1023;;;16.91;63.94
64230;BME280;50547;49.498;0.092;2022-09-21T08:27:28;1023;;;16.70;64.33
64230;BME280;50547;49.498;0.092;2022-09-21T08:29:57;1023;;;16.29;66.06
64230;BME280;50547;49.498;0.092;2022-09-21T08:32:26;1023;;;16.35;65.72
64230;BME280;50547;49.498;0.092;2022-09-21T08:34:55;1023;;;16.10;66.52
64230;BME280;50547;49.498;0.092;2022-09-21T08:37:48;1023;;;15.97;66.96
64230;BME280;50547;49.498;0.092;2022-09-21T08:40:17;1023;;;15.99;66.74
64230;BME280;50547;49.498;0.092;2022-09-21T08:42:54;1023;;;16.06;66.24
64230;BME280;50547;49.498;0.092;2022-09-21T08:45:28;1023;;;16.01;66.41
64230;BME280;50547;49.498;0.092;2022-09-21T08:48:01;1023;;;15.88;66.76
64230;BME280;50547;49.498;0.092;2022-09-21T08:50:36;1023;;;15.98;66.33
64230;BME280;50547;49.498;0.092;2022-09-21T08:53:08;1023;;;16.07;65.89
64230;BME280;50547;49.498;0.092;2022-09-21T08:55:39;1023;;;16.40;64.76
64230;BME280;50547;49.498;0.092;2022-09-21T08:58:47;1023;;;16.38;64.92
64230;BME280;50547;49.498;0.092;2022-09-21T09:01:30;1023;;;16.36;65.22
64230;BME280;50547;49.498;0.092;2022-09-21T09:04:21;1023;;;16.38;65.37
64230;BME280;50547;49.498;0.092;2022-09-21T09:07:03;1023;;;16.43;65.39
64230;BME280;50547;49.498;0.092;2022-09-21T09:09:48;1023;;;16.52;65.05
64230;BME280;50547;49.498;0.092;2022-09-21T09:12:33;1023;;;16.61;64.81
64230;BME280;50547;49.498;0.092;2022-09-21T09:15:19;1023;;;16.83;64.06
64230;BME280;50547;49.498;0.092;2022-09-21T09:17:55;1023;;;16.89;64.15
64230;BME280;50547;49.498;0.092;2022-09-21T09:20:28;1023;;;16.99;63.51
64230;BME280;50547;49.498;0.092;2022-09-21T09:23:05;1023;;;17.04;63.50
64230;BME280;50547;49.498;0.092;2022-09-21T09:25:39;1023;;;17.13;63.34
64230;BME280;50547;49.498;0.092;2022-09-21T09:28:20;1023;;;17.14;63.32
64230;BME280;50547;49.498;0.092;2022-09-21T09:30:57;1023;;;17.18;62.92
64230;BME280;50547;49.498;0.092;2022-09-21T09:33:34;1023;;;17.27;62.70
64230;BME280;50547;49.498;0.092;2022-09-21T09:36:11;1023;;;17.44;61.92
64230;BME280;50547;49.498;0.092;2022-09-21T09:38:44;1023;;;17.61;61.11
64230;BME280;50547;49.498;0.092;2022-09-21T09:41:34;1023;;;17.64;61.21
64230;BME280;50547;49.498;0.092;2022-09-21T09:44:20;1023;;;17.96;60.78
64230;BME280;50547;49.498;0.092;2022-09-21T09:47:09;1023;;;18.24;60.22
64230;BME280;50547;49.498;0.092;2022-09-21T09:49:54;1023;;;18.48;59.48
64230;BME280;50547;49.498;0.092;2022-09-21T09:52:27;1023;;;18.45;58.98
64230;BME280;50547;49.498;0.092;2022-09-21T09:54:57;1023;;;18.44;60.02
64230;BME280;50547;49.498;0.092;2022-09-21T09:57:29;1023;;;18.55;59.55
64230;BME280;50547;49.498;0.092;2022-09-21T10:00:04;1023;;;18.60;59.83
64230;BME280;50547;49.498;0.092;2022-09-21T10:02:44;1023;;;18.77;58.44
64230;BME280;50547;49.498;0.092;2022-09-21T10:05:21;1023;;;18.82;58.37
64230;BME280;50547;49.498;0.092;2022-09-21T10:07:51;1023;;;19.12;58.37
64230;BME280;50547;49.498;0.092;2022-09-21T10:10:28;1023;;;19.21;57.83
64230;BME280;50547;49.498;0.092;2022-09-21T10:13:05;1023;;;19.36;57.35
64230;BME280;50547;49.498;0.092;2022-09-21T10:15:43;1023;;;19.26;56.72
64230;BME280;50547;49.498;0.092;2022-09-21T10:18:17;1023;;;19.29;57.32
64230;BME280;50547;49.498;0.092;2022-09-21T10:20:57;1023;;;19.45;56.94
64230;BME280;50547;49.498;0.092;2022-09-21T10:23:29;1023;;;19.66;57.04
64230;BME280;50547;49.498;0.092;2022-09-21T10:26:01;1023;;;19.94;55.87
64230;BME280;50547;49.498;0.092;2022-09-21T10:28:32;1023;;;20.12;55.94
64230;BME280;50547;49.498;0.092;2022-09-21T10:31:09;1023;;;20.34;55.67
64230;BME280;50547;49.498;0.092;2022-09-21T10:33:47;1023;;;20.60;54.85
64230;BME280;50547;49.498;0.092;2022-09-21T10:36:33;1023;;;20.68;53.17
64230;BME280;50547;49.498;0.092;2022-09-21T10:39:16;1023;;;20.66;54.46
64230;BME280;50547;49.498;0.092;2022-09-21T10:41:48;1023;;;20.81;53.52
64230;BME280;50547;49.498;0.092;2022-09-21T10:44:20;1023;;;20.97;54.38
64230;BME280;50547;49.498;0.092;2022-09-21T10:46:51;1023;;;20.81;51.32
64230;BME280;50547;49.498;0.092;2022-09-21T10:49:22;1023;;;20.72;53.79
64230;BME280;50547;49.498;0.092;2022-09-21T10:51:56;1023;;;20.97;52.96
64230;BME280;50547;49.498;0.092;2022-09-21T10:54:28;1023;;;21.10;50.94
64230;BME280;50547;49.498;0.092;2022-09-21T10:57:02;1023;;;21.13;51.57
64230;BME280;50547;49.498;0.092;2022-09-21T10:59:33;1023;;;21.16;52.10
64230;BME280;50547;49.498;0.092;2022-09-21T11:02:24;1023;;;20.79;53.68
64230;BME280;50547;49.498;0.092;2022-09-21T11:04:58;1023;;;20.17;55.36
64230;BME280;50547;49.498;0.092;2022-09-21T11:07:32;1023;;;20.50;54.24
64230;BME280;50547;49.498;0.092;2022-09-21T11:10:11;1023;;;20.35;54.56
64230;BME280;50547;49.498;0.092;2022-09-21T11:12:50;1023;;;20.12;55.21
64230;BME280;50547;49.498;0.092;2022-09-21T11:15:32;1023;;;20.48;53.77
64230;BME280;50547;49.498;0.092;2022-09-21T11:18:08;1023;;;20.44;54.17
64230;BME280;50547;49.498;0.092;2022-09-21T11:20:46;1023;;;20.24;55.90
64230;BME280;50547;49.498;0.092;2022-09-21T11:23:25;1023;;;20.44;55.15
64230;BME280;50547;49.498;0.092;2022-09-21T11:26:03;1023;;;20.34;55.13
64230;BME280;50547;49.498;0.092;2022-09-21T11:28:39;1023;;;20.64;54.33
64230;BME280;50547;49.498;0.092;2022-09-21T11:31:28;1023;;;20.92;53.51
64230;BME280;50547;49.498;0.092;2022-09-21T11:34:11;1023;;;21.05;53.30
64230;BME280;50547;49.498;0.092;2022-09-21T11:36:52;1023;;;20.75;53.25
64230;BME280;50547;49.498;0.092;2022-09-21T11:39:31;1023;;;20.68;54.42
64230;BME280;50547;49.498;0.092;2022-09-21T11:42:14;1023;;;20.99;52.84
64230;BME280;50547;49.498;0.092;2022-09-21T11:44:51;1023;;;20.92;51.80
64230;BME280;50547;49.498;0.092;2022-09-21T11:47:35;1023;;;20.89;51.97
64230;BME280;50547;49.498;0.092;2022-09-21T11:50:19;1023;;;20.83;51.87
64230;BME280;50547;49.498;0.092;2022-09-21T11:53:03;1023;;;20.96;52.04
64230;BME280;50547;49.498;0.092;2022-09-21T11:55:47;1023;;;20.98;53.29
64230;BME280;50547;49.498;0.092;2022-09-21T11:58:25;1022;;;20.81;54.74
64230;BME280;50547;49.498;0.092;2022-09-21T12:01:06;1022;;;20.07;57.51
64230;BME280;50547;49.498;0.092;2022-09-21T12:03:43;1022;;;20.15;56.21
64230;BME280;50547;49.498;0.092;2022-09-21T12:06:24;1022;;;20.39;54.90
64230;BME280;50547;49.498;0.092;2022-09-21T12:09:07;1022;;;21.08;52.02
64230;BME280;50547;49.498;0.092;2022-09-21T12:11:49;1022;;;21.24;52.34
64230;BME280;50547;49.498;0.092;2022-09-21T12:14:33;1022;;;21.12;52.92
64230;BME280;50547;49.498;0.092;2022-09-21T12:17:15;1022;;;21.55;51.51
64230;BME280;50547;49.498;0.092;2022-09-21T12:19:52;1022;;;21.95;51.03
64230;BME280;50547;49.498;0.092;2022-09-21T12:22:27;1022;;;22.20;50.24
64230;BME280;50547;49.498;0.092;2022-09-21T12:25:00;1022;;;22.75;48.49
64230;BME280;50547;49.498;0.092;2022-09-21T12:27:33;1022;;;23.23;47.18
64230;BME280;50547;49.498;0.092;2022-09-21T12:30:11;1022;;;23.56;46.27
64230;BME280;50547;49.498;0.092;2022-09-21T12:32:48;1022;;;23.46;46.78
64230;BME280;50547;49.498;0.092;2022-09-21T12:35:22;1022;;;23.71;45.82
64230;BME280;50547;49.498;0.092;2022-09-21T12:37:56;1022;;;23.64;45.48
64230;BME280;50547;49.498;0.092;2022-09-21T12:40:33;1022;;;22.78;49.43
64230;BME280;50547;49.498;0.092;2022-09-21T12:43:10;1022;;;23.24;48.11
64230;BME280;50547;49.498;0.092;2022-09-21T12:45:44;1022;;;23.47;47.57
64230;BME280;50547;49.498;0.092;2022-09-21T12:48:23;1022;;;23.88;45.91
64230;BME280;50547;49.498;0.092;2022-09-21T12:50:57;1022;;;23.55;46.66
64230;BME280;50547;49.498;0.092;2022-09-21T12:53:29;1022;;;23.64;46.86
64230;BME280;50547;49.498;0.092;2022-09-21T12:56:05;1022;;;23.52;47.74
64230;BME280;50547;49.498;0.092;2022-09-21T12:59:01;1022;;;23.22;48.35
64230;BME280;50547;49.498;0.092;2022-09-21T13:01:39;1022;;;22.79;50.37
64230;BME280;50547;49.498;0.092;2022-09-21T13:04:28;1022;;;22.53;51.83
64230;BME280;50547;49.498;0.092;2022-09-21T13:07:27;1022;;;21.74;54.53
64230;BME280;50547;49.498;0.092;2022-09-21T13:10:16;1022;;;21.78;51.54
64230;BME280;50547;49.498;0.092;2022-09-21T13:12:50;1022;;;20.98;52.79
64230;BME280;50547;49.498;0.092;2022-09-21T13:15:23;1022;;;21.16;51.89
64230;BME280;50547;49.498;0.092;2022-09-21T13:17:57;1022;;;21.00;53.59
64230;BME280;50547;49.498;0.092;2022-09-21T13:20:33;1022;;;21.29;52.90
64230;BME280;50547;49.498;0.092;2022-09-21T13:23:03;1022;;;21.27;52.81
64230;BME280;50547;49.498;0.092;2022-09-21T13:25:33;1022;;;20.45;57.43
64230;BME280;50547;49.498;0.092;2022-09-21T13:28:05;1022;;;20.53;55.98
64230;BME280;50547;49.498;0.092;2022-09-21T13:30:38;1022;;;20.11;57.85
64230;BME280;50547;49.498;0.092;2022-09-21T13:33:40;1022;;;19.63;60.45
64230;BME280;50547;49.498;0.092;2022-09-21T13:36:34;1022;;;19.55;59.90
64230;BME280;50547;49.498;0.092;2022-09-21T13:39:19;1022;;;19.16;61.26
64230;BME280;50547;49.498;0.092;2022-09-21T13:41:48;1022;;;18.91;62.39
64230;BME280;50547;49.498;0.092;2022-09-21T13:44:21;1022;;;19.02;61.66
64230;BME280;50547;49.498;0.092;2022-09-21T13:47:04;1022;;;19.07;61.37
64230;BME280;50547;49.498;0.092;2022-09-21T13:49:41;1022;;;19.39;59.87
64230;BME280;50547;49.498;0.092;2022-09-21T13:52:32;1021;;;19.51;59.66
64230;BME280;50547;49.498;0.092;2022-09-21T13:55:16;1022;;;20.94;54.14
64230;BME280;50547;49.498;0.092;2022-09-21T13:57:51;1021;;;21.30;53.65
64230;BME280;50547;49.498;0.092;2022-09-21T14:00:30;1021;;;21.02;55.81
64230;BME280;50547;49.498;0.092;2022-09-21T14:03:04;1021;;;20.29;59.21
64230;BME280;50547;49.498;0.092;2022-09-21T14:05:38;1021;;;19.92;61.74
64230;BME280;50547;49.498;0.092;2022-09-21T14:08:20;1021;;;19.81;61.20
64230;BME280;50547;49.498;0.092;2022-09-21T14:10:54;1021;;;19.98;60.47
64230;BME280;50547;49.498;0.092;2022-09-21T14:13:29;1021;;;19.84;61.06
64230;BME280;50547;49.498;0.092;2022-09-21T14:17:32;1021;;;20.19;59.97
64230;BME280;50547;49.498;0.092;2022-09-21T14:20:02;1021;;;20.72;57.89
64230;BME280;50547;49.498;0.092;2022-09-21T14:22:36;1021;;;20.14;60.83
64230;BME280;50547;49.498;0.092;2022-09-21T14:25:24;1021;;;20.21;60.66